sensor_id;sensor_type;location;lat;lon;timestamp;P1;durP1;ratioP1;P2;durP2;ratioP2
51082;SDS011;37131;42.694;23.350;2022-07-24T00:02:19;14.45;;;5.20;;
51082;SDS011;37131;42.694;23.350;2022-07-24T00:04:45;9.88;;;4.30;;
51082;SDS011;37131;42.694;23.350;2022-07-24T00:07:11;14.20;;;4.78;;
51082;SDS011;37131;42.694;23.350;2022-07-24T00:09:36;15.23;;;5.30;;
51082;SDS011;37131;42.694;23.350;2022-07-24T00:12:01;6.65;;;3.40;;
51082;SDS011;37131;42.694;23.350;2022-07-24T00:14:27;17.60;;;5.30;;
51082;SDS011;37131;42.694;23.350;2022-07-24T00:16:53;18.27;;;5.22;;
51082;SDS011;37131;42.694;23.350;2022-07-24T00:19:18;9.70;;;4.00;;
51082;SDS011;37131;42.694;23.350;2022-07-24T00:21:43;18.85;;;4.95;;
51082;SDS011;37131;42.694;23.350;2022-07-24T00:24:09;12.90;;;4.68;;
51082;SDS011;37131;42.694;23.350;2022-07-24T00:26:35;21.33;;;5.75;;
51082;SDS011;37131;42.694;23.350;2022-07-24T00:29:00;12.85;;;4.75;;
51082;SDS011;37131;42.694;23.350;2022-07-24T00:31:26;20.40;;;5.88;;
51082;SDS011;37131;42.694;23.350;2022-07-24T00:33:51;13.25;;;5.15;;
51082;SDS011;37131;42.694;23.350;2022-07-24T00:36:17;6.88;;;4.10;;
51082;SDS011;37131;42.694;23.350;2022-07-24T00:38:43;8.75;;;4.25;;
51082;SDS011;37131;42.694;23.350;2022-07-24T00:41:08;12.35;;;4.55;;
51082;SDS011;37131;42.694;23.350;2022-07-24T00:43:34;12.35;;;4.93;;
51082;SDS011;37131;42.694;23.350;2022-07-24T00:45:59;9.90;;;4.30;;
51082;SDS011;37131;42.694;23.350;2022-07-24T00:48:25;18.67;;;4.90;;
51082;SDS011;37131;42.694;23.350;2022-07-24T00:50:50;10.27;;;4.38;;
51082;SDS011;37131;42.694;23.350;2022-07-24T00:53:16;14.77;;;5.10;;
51082;SDS011;37131;42.694;23.350;2022-07-24T00:55:42;26.83;;;5.97;;
51082;SDS011;37131;42.694;23.350;2022-07-24T00:58:07;15.88;;;5.18;;
51082;SDS011;37131;42.694;23.350;2022-07-24T01:00:33;17.35;;;5.28;;
51082;SDS011;37131;42.694;23.350;2022-07-24T01:02:59;13.65;;;5.03;;
51082;SDS011;37131;42.694;23.350;2022-07-24T01:05:24;14.63;;;5.32;;
51082;SDS011;37131;42.694;23.350;2022-07-24T01:07:50;16.35;;;5.05;;
51082;SDS011;37131;42.694;23.350;2022-07-24T01:10:16;15.48;;;4.93;;
51082;SDS011;37131;42.694;23.350;2022-07-24T01:12:41;10.93;;;4.13;;
51082;SDS011;37131;42.694;23.350;2022-07-24T01:15:09;20.50;;;5.30;;
51082;SDS011;37131;42.694;23.350;2022-07-24T01:17:36;14.80;;;5.30;;
51082;SDS011;37131;42.694;23.350;2022-07-24T01:20:03;10.88;;;3.95;;
51082;SDS011;37131;42.694;23.350;2022-07-24T01:22:30;9.18;;;3.67;;
51082;SDS011;37131;42.694;23.350;2022-07-24T01:24:55;12.68;;;4.63;;
51082;SDS011;37131;42.694;23.350;2022-07-24T01:27:22;9.45;;;4.22;;
51082;SDS011;37131;42.694;23.350;2022-07-24T01:29:48;10.55;;;3.67;;
51082;SDS011;37131;42.694;23.350;2022-07-24T01:32:14;12.82;;;4.18;;
51082;SDS011;37131;42.694;23.350;2022-07-24T01:34:40;15.45;;;4.70;;
51082;SDS011;37131;42.694;23.350;2022-07-24T01:37:05;9.07;;;4.25;;
51082;SDS011;37131;42.694;23.350;2022-07-24T01:39:31;13.63;;;4.80;;
51082;SDS011;37131;42.694;23.350;2022-07-24T01:41:56;16.85;;;4.53;;
51082;SDS011;37131;42.694;23.350;2022-07-24T01:44:22;12.68;;;3.97;;
51082;SDS011;37131;42.694;23.350;2022-07-24T01:46:47;17.58;;;5.25;;
51082;SDS011;37131;42.694;23.350;2022-07-24T01:49:13;14.63;;;4.50;;
51082;SDS011;37131;42.694;23.350;2022-07-24T01:51:39;15.82;;;5.38;;
51082;SDS011;37131;42.694;23.350;2022-07-24T01:54:04;13.70;;;4.32;;
51082;SDS011;37131;42.694;23.350;2022-07-24T01:56:30;16.60;;;5.15;;
51082;SDS011;37131;42.694;23.350;2022-07-24T01:58:57;18.38;;;5.22;;
51082;SDS011;37131;42.694;23.350;2022-07-24T02:01:23;15.13;;;4.55;;
51082;SDS011;37131;42.694;23.350;2022-07-24T02:03:48;15.25;;;4.90;;
51082;SDS011;37131;42.694;23.350;2022-07-24T02:06:14;14.05;;;4.50;;
51082;SDS011;37131;42.694;23.350;2022-07-24T02:08:40;16.40;;;4.57;;
51082;SDS011;37131;42.694;23.350;2022-07-24T02:11:05;16.52;;;4.68;;
51082;SDS011;37131;42.694;23.350;2022-07-24T02:13:31;14.27;;;4.95;;
51082;SDS011;37131;42.694;23.350;2022-07-24T02:15:57;13.80;;;5.20;;
51082;SDS011;37131;42.694;23.350;2022-07-24T02:18:22;10.02;;;4.55;;
51082;SDS011;37131;42.694;23.350;2022-07-24T02:20:48;10.95;;;4.35;;
51082;SDS011;37131;42.694;23.350;2022-07-24T02:23:13;15.32;;;5.18;;
51082;SDS011;37131;42.694;23.350;2022-07-24T02:25:43;9.23;;;4.13;;
51082;SDS011;37131;42.694;23.350;2022-07-24T02:28:09;12.30;;;4.85;;
51082;SDS011;37131;42.694;23.350;2022-07-24T02:30:35;15.18;;;4.53;;
51082;SDS011;37131;42.694;23.350;2022-07-24T02:33:00;15.70;;;4.95;;
51082;SDS011;37131;42.694;23.350;2022-07-24T02:35:25;15.35;;;4.38;;
51082;SDS011;37131;42.694;23.350;2022-07-24T02:37:51;8.90;;;4.30;;
51082;SDS011;37131;42.694;23.350;2022-07-24T02:40:16;8.10;;;4.03;;
51082;SDS011;37131;42.694;23.350;2022-07-24T02:42:42;15.27;;;4.28;;
51082;SDS011;37131;42.694;23.350;2022-07-24T02:45:07;9.70;;;4.90;;
51082;SDS011;37131;42.694;23.350;2022-07-24T02:47:33;9.90;;;4.63;;
51082;SDS011;37131;42.694;23.350;2022-07-24T02:50:00;19.38;;;5.70;;
51082;SDS011;37131;42.694;23.350;2022-07-24T02:52:25;9.75;;;4.70;;
51082;SDS011;37131;42.694;23.350;2022-07-24T02:54:51;17.45;;;6.03;;
51082;SDS011;37131;42.694;23.350;2022-07-24T02:57:17;9.68;;;4.63;;
51082;SDS011;37131;42.694;23.350;2022-07-24T02:59:43;13.23;;;5.25;;
51082;SDS011;37131;42.694;23.350;2022-07-24T03:02:14;14.90;;;5.38;;
51082;SDS011;37131;42.694;23.350;2022-07-24T03:04:40;10.20;;;4.32;;
51082;SDS011;37131;42.694;23.350;2022-07-24T03:07:05;14.45;;;5.07;;
51082;SDS011;37131;42.694;23.350;2022-07-24T03:09:31;16.23;;;5.43;;
51082;SDS011;37131;42.694;23.350;2022-07-24T03:11:56;13.25;;;4.45;;
51082;SDS011;37131;42.694;23.350;2022-07-24T03:14:21;14.43;;;5.45;;
51082;SDS011;37131;42.694;23.350;2022-07-24T03:16:47;16.67;;;5.03;;
51082;SDS011;37131;42.694;23.350;2022-07-24T03:19:12;16.30;;;5.25;;
51082;SDS011;37131;42.694;23.350;2022-07-24T03:21:38;15.40;;;5.10;;
51082;SDS011;37131;42.694;23.350;2022-07-24T03:24:03;13.13;;;4.80;;
51082;SDS011;37131;42.694;23.350;2022-07-24T03:26:29;8.40;;;4.22;;
51082;SDS011;37131;42.694;23.350;2022-07-24T03:28:54;19.45;;;5.57;;
51082;SDS011;37131;42.694;23.350;2022-07-24T03:31:19;16.30;;;5.28;;
51082;SDS011;37131;42.694;23.350;2022-07-24T03:33:45;17.90;;;5.35;;
51082;SDS011;37131;42.694;23.350;2022-07-24T03:36:10;17.50;;;6.10;;
51082;SDS011;37131;42.694;23.350;2022-07-24T03:38:35;19.67;;;6.00;;
51082;SDS011;37131;42.694;23.350;2022-07-24T03:41:01;12.77;;;5.07;;
51082;SDS011;37131;42.694;23.350;2022-07-24T03:43:26;16.42;;;4.75;;
51082;SDS011;37131;42.694;23.350;2022-07-24T03:45:52;11.13;;;4.63;;
51082;SDS011;37131;42.694;23.350;2022-07-24T03:48:17;15.93;;;5.53;;
51082;SDS011;37131;42.694;23.350;2022-07-24T03:50:43;12.60;;;4.65;;
51082;SDS011;37131;42.694;23.350;2022-07-24T03:53:08;10.27;;;4.68;;
51082;SDS011;37131;42.694;23.350;2022-07-24T03:55:33;14.80;;;4.95;;
51082;SDS011;37131;42.694;23.350;2022-07-24T03:57:59;9.80;;;4.40;;
51082;SDS011;37131;42.694;23.350;2022-07-24T04:00:24;16.48;;;5.22;;
51082;SDS011;37131;42.694;23.350;2022-07-24T04:02:50;10.43;;;4.25;;
51082;SDS011;37131;42.694;23.350;2022-07-24T04:05:15;13.07;;;4.80;;
51082;SDS011;37131;42.694;23.350;2022-07-24T04:07:41;18.08;;;5.30;;
51082;SDS011;37131;42.694;23.350;2022-07-24T04:10:06;14.82;;;5.15;;
51082;SDS011;37131;42.694;23.350;2022-07-24T04:12:32;9.63;;;4.03;;
51082;SDS011;37131;42.694;23.350;2022-07-24T04:14:58;10.90;;;4.22;;
51082;SDS011;37131;42.694;23.350;2022-07-24T04:17:24;18.48;;;5.20;;
51082;SDS011;37131;42.694;23.350;2022-07-24T04:19:49;21.08;;;5.85;;
51082;SDS011;37131;42.694;23.350;2022-07-24T04:22:15;13.20;;;5.25;;
51082;SDS011;37131;42.694;23.350;2022-07-24T04:24:40;12.70;;;4.70;;
51082;SDS011;37131;42.694;23.350;2022-07-24T04:27:06;10.13;;;4.70;;
51082;SDS011;37131;42.694;23.350;2022-07-24T04:29:31;14.05;;;4.85;;
51082;SDS011;37131;42.694;23.350;2022-07-24T04:31:56;18.58;;;4.93;;
51082;SDS011;37131;42.694;23.350;2022-07-24T04:34:22;18.08;;;5.35;;
51082;SDS011;37131;42.694;23.350;2022-07-24T04:36:47;10.15;;;4.28;;
51082;SDS011;37131;42.694;23.350;2022-07-24T04:39:13;16.92;;;4.82;;
51082;SDS011;37131;42.694;23.350;2022-07-24T04:41:39;10.75;;;4.82;;
51082;SDS011;37131;42.694;23.350;2022-07-24T04:44:04;12.95;;;4.85;;
51082;SDS011;37131;42.694;23.350;2022-07-24T04:46:30;9.52;;;4.25;;
51082;SDS011;37131;42.694;23.350;2022-07-24T04:48:55;10.05;;;4.20;;
51082;SDS011;37131;42.694;23.350;2022-07-24T04:51:21;10.65;;;4.72;;
51082;SDS011;37131;42.694;23.350;2022-07-24T04:53:46;14.70;;;4.93;;
51082;SDS011;37131;42.694;23.350;2022-07-24T04:56:12;14.63;;;4.63;;
51082;SDS011;37131;42.694;23.350;2022-07-24T04:58:37;8.70;;;3.92;;
51082;SDS011;37131;42.694;23.350;2022-07-24T05:01:02;12.52;;;4.68;;
51082;SDS011;37131;42.694;23.350;2022-07-24T05:03:28;8.98;;;4.63;;
51082;SDS011;37131;42.694;23.350;2022-07-24T05:05:54;15.27;;;5.38;;
51082;SDS011;37131;42.694;23.350;2022-07-24T05:08:19;16.15;;;5.10;;
51082;SDS011;37131;42.694;23.350;2022-07-24T05:10:45;13.95;;;5.60;;
51082;SDS011;37131;42.694;23.350;2022-07-24T05:13:10;15.05;;;4.32;;
51082;SDS011;37131;42.694;23.350;2022-07-24T05:15:35;11.05;;;4.55;;
51082;SDS011;37131;42.694;23.350;2022-07-24T05:18:01;13.02;;;4.35;;
51082;SDS011;37131;42.694;23.350;2022-07-24T05:20:27;15.38;;;4.75;;
51082;SDS011;37131;42.694;23.350;2022-07-24T05:22:52;19.33;;;5.97;;
51082;SDS011;37131;42.694;23.350;2022-07-24T05:25:17;16.65;;;5.32;;
51082;SDS011;37131;42.694;23.350;2022-07-24T05:27:43;19.05;;;5.72;;
51082;SDS011;37131;42.694;23.350;2022-07-24T05:30:09;19.77;;;5.93;;
51082;SDS011;37131;42.694;23.350;2022-07-24T05:32:35;15.93;;;5.20;;
51082;SDS011;37131;42.694;23.350;2022-07-24T05:35:00;14.65;;;5.15;;
51082;SDS011;37131;42.694;23.350;2022-07-24T05:37:26;10.77;;;4.10;;
51082;SDS011;37131;42.694;23.350;2022-07-24T05:39:51;18.48;;;5.55;;
51082;SDS011;37131;42.694;23.350;2022-07-24T05:42:17;16.70;;;4.95;;
51082;SDS011;37131;42.694;23.350;2022-07-24T05:44:42;15.88;;;4.78;;
51082;SDS011;37131;42.694;23.350;2022-07-24T05:47:07;16.75;;;5.43;;
51082;SDS011;37131;42.694;23.350;2022-07-24T05:49:33;13.18;;;4.85;;
51082;SDS011;37131;42.694;23.350;2022-07-24T05:51:58;12.60;;;4.32;;
51082;SDS011;37131;42.694;23.350;2022-07-24T05:54:25;15.23;;;5.38;;
51082;SDS011;37131;42.694;23.350;2022-07-24T05:56:50;18.00;;;4.93;;
51082;SDS011;37131;42.694;23.350;2022-07-24T05:59:16;19.38;;;5.47;;
51082;SDS011;37131;42.694;23.350;2022-07-24T06:01:41;18.05;;;5.05;;
51082;SDS011;37131;42.694;23.350;2022-07-24T06:04:06;8.40;;;4.35;;
51082;SDS011;37131;42.694;23.350;2022-07-24T06:06:32;11.50;;;4.57;;
51082;SDS011;37131;42.694;23.350;2022-07-24T06:08:57;16.58;;;5.70;;
51082;SDS011;37131;42.694;23.350;2022-07-24T06:11:23;20.40;;;5.07;;
51082;SDS011;37131;42.694;23.350;2022-07-24T06:13:48;17.38;;;4.75;;
51082;SDS011;37131;42.694;23.350;2022-07-24T06:16:14;16.00;;;4.70;;
51082;SDS011;37131;42.694;23.350;2022-07-24T06:18:39;11.77;;;5.00;;
51082;SDS011;37131;42.694;23.350;2022-07-24T06:21:05;18.17;;;5.55;;
51082;SDS011;37131;42.694;23.350;2022-07-24T06:23:31;14.63;;;4.93;;
51082;SDS011;37131;42.694;23.350;2022-07-24T06:25:57;17.42;;;5.78;;
51082;SDS011;37131;42.694;23.350;2022-07-24T06:28:23;15.95;;;5.40;;
51082;SDS011;37131;42.694;23.350;2022-07-24T06:30:48;17.08;;;4.68;;
51082;SDS011;37131;42.694;23.350;2022-07-24T06:33:14;8.77;;;4.40;;
51082;SDS011;37131;42.694;23.350;2022-07-24T06:35:39;10.73;;;4.20;;
51082;SDS011;37131;42.694;23.350;2022-07-24T06:38:05;14.63;;;5.00;;
51082;SDS011;37131;42.694;23.350;2022-07-24T06:40:30;14.13;;;5.18;;
51082;SDS011;37131;42.694;23.350;2022-07-24T06:42:55;12.25;;;5.03;;
51082;SDS011;37131;42.694;23.350;2022-07-24T06:45:21;15.05;;;5.43;;
51082;SDS011;37131;42.694;23.350;2022-07-24T06:47:46;9.52;;;4.78;;
51082;SDS011;37131;42.694;23.350;2022-07-24T06:50:12;16.83;;;5.32;;
51082;SDS011;37131;42.694;23.350;2022-07-24T06:52:38;20.00;;;5.65;;
51082;SDS011;37131;42.694;23.350;2022-07-24T06:55:04;17.40;;;5.60;;
51082;SDS011;37131;42.694;23.350;2022-07-24T06:57:30;14.30;;;4.90;;
51082;SDS011;37131;42.694;23.350;2022-07-24T06:59:55;16.25;;;5.72;;
51082;SDS011;37131;42.694;23.350;2022-07-24T07:02:21;16.67;;;5.35;;
51082;SDS011;37131;42.694;23.350;2022-07-24T07:04:47;16.02;;;5.65;;
51082;SDS011;37131;42.694;23.350;2022-07-24T07:07:14;19.45;;;5.88;;
51082;SDS011;37131;42.694;23.350;2022-07-24T07:09:40;20.48;;;6.90;;
51082;SDS011;37131;42.694;23.350;2022-07-24T07:12:06;14.32;;;5.38;;
51082;SDS011;37131;42.694;23.350;2022-07-24T07:14:32;17.10;;;5.80;;
51082;SDS011;37131;42.694;23.350;2022-07-24T07:16:57;19.80;;;6.30;;
51082;SDS011;37131;42.694;23.350;2022-07-24T07:19:23;26.25;;;7.18;;
51082;SDS011;37131;42.694;23.350;2022-07-24T07:21:48;20.25;;;5.82;;
51082;SDS011;37131;42.694;23.350;2022-07-24T07:24:14;22.20;;;6.47;;
51082;SDS011;37131;42.694;23.350;2022-07-24T07:26:39;19.52;;;6.70;;
51082;SDS011;37131;42.694;23.350;2022-07-24T07:29:05;26.23;;;6.45;;
51082;SDS011;37131;42.694;23.350;2022-07-24T07:31:30;28.33;;;6.82;;
51082;SDS011;37131;42.694;23.350;2022-07-24T07:33:55;22.67;;;7.20;;
51082;SDS011;37131;42.694;23.350;2022-07-24T07:36:22;21.08;;;6.13;;
51082;SDS011;37131;42.694;23.350;2022-07-24T07:38:48;18.25;;;5.72;;
51082;SDS011;37131;42.694;23.350;2022-07-24T07:41:14;23.23;;;6.63;;
51082;SDS011;37131;42.694;23.350;2022-07-24T07:43:39;19.73;;;5.32;;
51082;SDS011;37131;42.694;23.350;2022-07-24T07:46:06;23.52;;;5.93;;
51082;SDS011;37131;42.694;23.350;2022-07-24T07:48:32;19.25;;;6.35;;
51082;SDS011;37131;42.694;23.350;2022-07-24T07:50:57;15.82;;;5.07;;
51082;SDS011;37131;42.694;23.350;2022-07-24T07:53:23;18.75;;;5.45;;
51082;SDS011;37131;42.694;23.350;2022-07-24T07:55:49;19.98;;;6.13;;
51082;SDS011;37131;42.694;23.350;2022-07-24T07:58:19;15.07;;;5.18;;
51082;SDS011;37131;42.694;23.350;2022-07-24T08:00:45;27.65;;;6.63;;
51082;SDS011;37131;42.694;23.350;2022-07-24T08:03:10;21.10;;;6.57;;
51082;SDS011;37131;42.694;23.350;2022-07-24T08:05:36;24.33;;;6.07;;
51082;SDS011;37131;42.694;23.350;2022-07-24T08:08:01;9.43;;;4.60;;
51082;SDS011;37131;42.694;23.350;2022-07-24T08:10:26;16.25;;;5.50;;
51082;SDS011;37131;42.694;23.350;2022-07-24T08:12:52;8.90;;;4.28;;
51082;SDS011;37131;42.694;23.350;2022-07-24T08:15:18;16.00;;;5.35;;
51082;SDS011;37131;42.694;23.350;2022-07-24T08:17:44;14.50;;;5.15;;
51082;SDS011;37131;42.694;23.350;2022-07-24T08:20:09;14.10;;;3.88;;
51082;SDS011;37131;42.694;23.350;2022-07-24T08:22:35;19.25;;;4.63;;
51082;SDS011;37131;42.694;23.350;2022-07-24T08:25:01;14.88;;;4.80;;
51082;SDS011;37131;42.694;23.350;2022-07-24T08:27:26;9.85;;;4.13;;
51082;SDS011;37131;42.694;23.350;2022-07-24T08:29:52;24.55;;;5.97;;
51082;SDS011;37131;42.694;23.350;2022-07-24T08:32:19;10.60;;;3.45;;
51082;SDS011;37131;42.694;23.350;2022-07-24T08:34:45;8.95;;;3.83;;
51082;SDS011;37131;42.694;23.350;2022-07-24T08:37:10;13.38;;;4.38;;
51082;SDS011;37131;42.694;23.350;2022-07-24T08:39:35;7.40;;;3.97;;
51082;SDS011;37131;42.694;23.350;2022-07-24T08:42:01;14.63;;;4.57;;
51082;SDS011;37131;42.694;23.350;2022-07-24T08:44:26;16.98;;;5.30;;
51082;SDS011;37131;42.694;23.350;2022-07-24T08:46:52;10.07;;;3.95;;
51082;SDS011;37131;42.694;23.350;2022-07-24T08:49:19;10.90;;;4.53;;
51082;SDS011;37131;42.694;23.350;2022-07-24T08:51:47;10.15;;;4.30;;
51082;SDS011;37131;42.694;23.350;2022-07-24T08:54:14;9.15;;;3.85;;
51082;SDS011;37131;42.694;23.350;2022-07-24T08:56:40;8.30;;;3.65;;
51082;SDS011;37131;42.694;23.350;2022-07-24T08:59:14;18.42;;;5.22;;
51082;SDS011;37131;42.694;23.350;2022-07-24T09:01:44;12.73;;;4.68;;
51082;SDS011;37131;42.694;23.350;2022-07-24T09:07:03;27.65;;;6.10;;
51082;SDS011;37131;42.694;23.350;2022-07-24T09:09:30;11.25;;;4.43;;
51082;SDS011;37131;42.694;23.350;2022-07-24T09:12:06;23.40;;;6.57;;
51082;SDS011;37131;42.694;23.350;2022-07-24T09:14:34;14.90;;;4.60;;
51082;SDS011;37131;42.694;23.350;2022-07-24T09:17:02;8.77;;;4.22;;
51082;SDS011;37131;42.694;23.350;2022-07-24T09:19:53;15.48;;;5.13;;
51082;SDS011;37131;42.694;23.350;2022-07-24T09:27:34;15.07;;;5.55;;
51082;SDS011;37131;42.694;23.350;2022-07-24T09:30:01;16.92;;;5.10;;
51082;SDS011;37131;42.694;23.350;2022-07-24T09:32:27;15.98;;;4.65;;
51082;SDS011;37131;42.694;23.350;2022-07-24T09:34:53;18.02;;;5.35;;
51082;SDS011;37131;42.694;23.350;2022-07-24T09:37:19;18.67;;;5.45;;
51082;SDS011;37131;42.694;23.350;2022-07-24T09:39:45;15.10;;;5.57;;
51082;SDS011;37131;42.694;23.350;2022-07-24T09:42:11;18.70;;;4.97;;
51082;SDS011;37131;42.694;23.350;2022-07-24T09:44:37;9.77;;;4.25;;
51082;SDS011;37131;42.694;23.350;2022-07-24T09:47:05;17.98;;;5.30;;
51082;SDS011;37131;42.694;23.350;2022-07-24T09:49:33;17.10;;;5.22;;
51082;SDS011;37131;42.694;23.350;2022-07-24T09:54:36;16.33;;;4.80;;
51082;SDS011;37131;42.694;23.350;2022-07-24T09:59:57;10.65;;;4.07;;
51082;SDS011;37131;42.694;23.350;2022-07-24T10:02:27;15.75;;;4.90;;
51082;SDS011;37131;42.694;23.350;2022-07-24T10:04:55;11.82;;;4.25;;
51082;SDS011;37131;42.694;23.350;2022-07-24T10:07:22;8.07;;;3.67;;
51082;SDS011;37131;42.694;23.350;2022-07-24T10:09:51;14.75;;;4.22;;
51082;SDS011;37131;42.694;23.350;2022-07-24T10:12:20;12.73;;;4.10;;
51082;SDS011;37131;42.694;23.350;2022-07-24T10:14:48;14.05;;;3.80;;
51082;SDS011;37131;42.694;23.350;2022-07-24T10:17:15;7.50;;;3.53;;
51082;SDS011;37131;42.694;23.350;2022-07-24T10:19:43;8.63;;;3.70;;
51082;SDS011;37131;42.694;23.350;2022-07-24T10:22:23;18.70;;;4.65;;
51082;SDS011;37131;42.694;23.350;2022-07-24T10:24:58;9.23;;;3.67;;
51082;SDS011;37131;42.694;23.350;2022-07-24T10:27:26;8.02;;;3.08;;
51082;SDS011;37131;42.694;23.350;2022-07-24T10:29:55;8.10;;;3.53;;
51082;SDS011;37131;42.694;23.350;2022-07-24T10:32:23;8.25;;;3.53;;
51082;SDS011;37131;42.694;23.350;2022-07-24T10:35:12;8.48;;;3.53;;
51082;SDS011;37131;42.694;23.350;2022-07-24T10:40:50;8.57;;;3.45;;
51082;SDS011;37131;42.694;23.350;2022-07-24T10:43:17;8.63;;;3.75;;
51082;SDS011;37131;42.694;23.350;2022-07-24T10:50:59;12.95;;;3.97;;
51082;SDS011;37131;42.694;23.350;2022-07-24T10:53:53;7.15;;;3.22;;
51082;SDS011;37131;42.694;23.350;2022-07-24T11:01:32;8.43;;;3.30;;
51082;SDS011;37131;42.694;23.350;2022-07-24T11:03:59;15.02;;;3.78;;
51082;SDS011;37131;42.694;23.350;2022-07-24T11:06:41;5.47;;;3.22;;
51082;SDS011;37131;42.694;23.350;2022-07-24T11:09:11;7.80;;;3.30;;
51082;SDS011;37131;42.694;23.350;2022-07-24T11:11:41;18.38;;;4.43;;
51082;SDS011;37131;42.694;23.350;2022-07-24T11:14:17;6.32;;;3.38;;
51082;SDS011;37131;42.694;23.350;2022-07-24T11:16:43;15.05;;;4.13;;
51082;SDS011;37131;42.694;23.350;2022-07-24T11:21:40;6.95;;;3.33;;
51082;SDS011;37131;42.694;23.350;2022-07-24T11:26:40;5.85;;;3.33;;
51082;SDS011;37131;42.694;23.350;2022-07-24T11:29:20;6.30;;;3.70;;
51082;SDS011;37131;42.694;23.350;2022-07-24T11:31:56;8.13;;;3.30;;
51082;SDS011;37131;42.694;23.350;2022-07-24T11:34:24;6.93;;;2.95;;
51082;SDS011;37131;42.694;23.350;2022-07-24T11:36:51;11.52;;;3.97;;
51082;SDS011;37131;42.694;23.350;2022-07-24T11:39:18;8.65;;;3.33;;
51082;SDS011;37131;42.694;23.350;2022-07-24T11:44:10;7.15;;;3.20;;
51082;SDS011;37131;42.694;23.350;2022-07-24T11:46:37;7.43;;;3.40;;
51082;SDS011;37131;42.694;23.350;2022-07-24T11:49:09;7.07;;;3.40;;
51082;SDS011;37131;42.694;23.350;2022-07-24T11:51:44;8.07;;;3.85;;
51082;SDS011;37131;42.694;23.350;2022-07-24T11:54:12;6.40;;;3.67;;
51082;SDS011;37131;42.694;23.350;2022-07-24T11:56:39;9.68;;;3.65;;
51082;SDS011;37131;42.694;23.350;2022-07-24T11:59:05;5.90;;;3.33;;
51082;SDS011;37131;42.694;23.350;2022-07-24T12:01:45;9.68;;;3.50;;
51082;SDS011;37131;42.694;23.350;2022-07-24T12:04:10;13.80;;;4.15;;
51082;SDS011;37131;42.694;23.350;2022-07-24T12:06:36;12.40;;;4.18;;
51082;SDS011;37131;42.694;23.350;2022-07-24T12:09:07;6.90;;;3.55;;
51082;SDS011;37131;42.694;23.350;2022-07-24T12:11:33;6.45;;;3.40;;
51082;SDS011;37131;42.694;23.350;2022-07-24T12:14:00;8.82;;;3.50;;
51082;SDS011;37131;42.694;23.350;2022-07-24T12:16:26;11.40;;;3.78;;
51082;SDS011;37131;42.694;23.350;2022-07-24T12:19:10;8.68;;;3.40;;
51082;SDS011;37131;42.694;23.350;2022-07-24T12:21:39;8.40;;;3.38;;
51082;SDS011;37131;42.694;23.350;2022-07-24T12:24:05;6.63;;;3.45;;
51082;SDS011;37131;42.694;23.350;2022-07-24T12:26:31;9.70;;;3.60;;
51082;SDS011;37131;42.694;23.350;2022-07-24T12:29:08;14.82;;;3.88;;
51082;SDS011;37131;42.694;23.350;2022-07-24T12:31:35;8.30;;;3.50;;
51082;SDS011;37131;42.694;23.350;2022-07-24T12:34:01;8.38;;;3.45;;
51082;SDS011;37131;42.694;23.350;2022-07-24T12:36:26;7.57;;;3.30;;
51082;SDS011;37131;42.694;23.350;2022-07-24T12:38:53;15.07;;;4.25;;
51082;SDS011;37131;42.694;23.350;2022-07-24T12:41:20;7.90;;;3.15;;
51082;SDS011;37131;42.694;23.350;2022-07-24T12:43:51;6.93;;;3.10;;
51082;SDS011;37131;42.694;23.350;2022-07-24T12:46:23;6.95;;;3.30;;
51082;SDS011;37131;42.694;23.350;2022-07-24T12:49:00;13.30;;;4.10;;
51082;SDS011;37131;42.694;23.350;2022-07-24T12:51:49;17.85;;;4.32;;
51082;SDS011;37131;42.694;23.350;2022-07-24T12:54:30;7.32;;;3.28;;
51082;SDS011;37131;42.694;23.350;2022-07-24T12:57:01;7.85;;;3.25;;
51082;SDS011;37131;42.694;23.350;2022-07-24T12:59:38;8.50;;;3.50;;
51082;SDS011;37131;42.694;23.350;2022-07-24T13:02:11;7.40;;;3.25;;
51082;SDS011;37131;42.694;23.350;2022-07-24T13:04:57;5.75;;;3.15;;
51082;SDS011;37131;42.694;23.350;2022-07-24T13:07:23;11.98;;;3.95;;
51082;SDS011;37131;42.694;23.350;2022-07-24T13:09:50;7.07;;;3.63;;
51082;SDS011;37131;42.694;23.350;2022-07-24T13:12:16;6.95;;;3.20;;
51082;SDS011;37131;42.694;23.350;2022-07-24T13:14:43;11.43;;;3.67;;
51082;SDS011;37131;42.694;23.350;2022-07-24T13:19:36;4.75;;;2.92;;
51082;SDS011;37131;42.694;23.350;2022-07-24T13:22:02;13.30;;;3.80;;
51082;SDS011;37131;42.694;23.350;2022-07-24T13:24:28;7.45;;;2.60;;
51082;SDS011;37131;42.694;23.350;2022-07-24T13:26:54;6.50;;;3.13;;
51082;SDS011;37131;42.694;23.350;2022-07-24T13:29:20;4.22;;;3.10;;
51082;SDS011;37131;42.694;23.350;2022-07-24T13:31:46;6.80;;;2.58;;
51082;SDS011;37131;42.694;23.350;2022-07-24T13:34:11;5.03;;;2.80;;
51082;SDS011;37131;42.694;23.350;2022-07-24T13:36:36;6.38;;;3.22;;
51082;SDS011;37131;42.694;23.350;2022-07-24T13:39:03;7.03;;;3.55;;
51082;SDS011;37131;42.694;23.350;2022-07-24T13:41:29;10.73;;;3.70;;
51082;SDS011;37131;42.694;23.350;2022-07-24T13:43:55;12.38;;;3.58;;
51082;SDS011;37131;42.694;23.350;2022-07-24T13:46:21;8.15;;;3.70;;
51082;SDS011;37131;42.694;23.350;2022-07-24T13:48:46;6.65;;;4.10;;
51082;SDS011;37131;42.694;23.350;2022-07-24T13:51:11;16.95;;;4.43;;
51082;SDS011;37131;42.694;23.350;2022-07-24T13:53:37;10.38;;;4.70;;
51082;SDS011;37131;42.694;23.350;2022-07-24T13:56:04;9.65;;;4.03;;
51082;SDS011;37131;42.694;23.350;2022-07-24T13:58:33;8.30;;;3.97;;
51082;SDS011;37131;42.694;23.350;2022-07-24T14:01:01;10.77;;;3.55;;
51082;SDS011;37131;42.694;23.350;2022-07-24T14:03:30;18.40;;;5.07;;
51082;SDS011;37131;42.694;23.350;2022-07-24T14:05:56;5.32;;;3.58;;
51082;SDS011;37131;42.694;23.350;2022-07-24T14:08:22;10.35;;;3.42;;
51082;SDS011;37131;42.694;23.350;2022-07-24T14:10:48;12.23;;;4.00;;
51082;SDS011;37131;42.694;23.350;2022-07-24T14:13:13;10.55;;;3.83;;
51082;SDS011;37131;42.694;23.350;2022-07-24T14:15:38;17.73;;;4.35;;
51082;SDS011;37131;42.694;23.350;2022-07-24T14:18:04;15.38;;;4.72;;
51082;SDS011;37131;42.694;23.350;2022-07-24T14:20:29;12.07;;;3.60;;
51082;SDS011;37131;42.694;23.350;2022-07-24T14:22:55;14.23;;;4.70;;
51082;SDS011;37131;42.694;23.350;2022-07-24T14:25:20;13.20;;;4.00;;
51082;SDS011;37131;42.694;23.350;2022-07-24T14:27:46;7.65;;;3.67;;
51082;SDS011;37131;42.694;23.350;2022-07-24T14:30:12;9.55;;;3.80;;
51082;SDS011;37131;42.694;23.350;2022-07-24T14:32:37;13.10;;;4.80;;
51082;SDS011;37131;42.694;23.350;2022-07-24T14:35:03;7.07;;;3.80;;
51082;SDS011;37131;42.694;23.350;2022-07-24T14:37:32;5.82;;;4.05;;
51082;SDS011;37131;42.694;23.350;2022-07-24T14:40:01;7.03;;;4.30;;
51082;SDS011;37131;42.694;23.350;2022-07-24T14:42:31;11.65;;;4.65;;
51082;SDS011;37131;42.694;23.350;2022-07-24T14:44:57;7.63;;;3.75;;
51082;SDS011;37131;42.694;23.350;2022-07-24T14:47:22;6.25;;;4.18;;
51082;SDS011;37131;42.694;23.350;2022-07-24T14:49:48;9.43;;;4.50;;
51082;SDS011;37131;42.694;23.350;2022-07-24T14:52:13;14.80;;;5.53;;
51082;SDS011;37131;42.694;23.350;2022-07-24T14:54:39;7.10;;;4.15;;
51082;SDS011;37131;42.694;23.350;2022-07-24T14:57:04;8.48;;;4.38;;
51082;SDS011;37131;42.694;23.350;2022-07-24T14:59:31;6.43;;;4.53;;
51082;SDS011;37131;42.694;23.350;2022-07-24T15:01:57;5.05;;;3.72;;